Time;durP1;ratioP1;P1;durP2;ratioP2;P2;SDS_P1;SDS_P2;PMS_P1;PMS_P2;Temp;Humidity;BMP_temperature;BMP_pressure;BME280_temperature;BME280_humidity;BME280_pressure;Samples;Min_cycle;Max_cycle;Signal;HPM_P1;HPM_P2
2023/04/15 00:00:15;;;;;;;13.07;6.00;;;4.50;99.90;;;;;;5033649;28;20087;-53
2023/04/15 00:02:41;;;;;;;11.43;5.32;;;4.20;99.90;;;;;;5038485;28;20029;-53
2023/04/15 00:05:07;;;;;;;13.50;6.22;;;4.50;99.90;;;;;;5039439;28;20593;-51
2023/04/15 00:07:33;;;;;;;12.10;5.85;;;4.20;99.90;;;;;;5036066;28;20071;-52
2023/04/15 00:09:58;;;;;;;14.75;6.65;;;4.10;99.90;;;;;;5040389;28;20049;-50
2023/04/15 00:12:25;;;;;;;11.73;6.13;;;4.30;99.90;;;;;;5034108;28;20124;-53
2023/04/15 00:14:51;;;;;;;13.45;6.10;;;4.20;99.90;;;;;;5032938;28;20045;-52
2023/04/15 00:17:17;;;;;;;14.35;5.72;;;3.90;99.90;;;;;;5035698;28;20033;-53
2023/04/15 00:19:46;;;;;;;14.32;6.15;;;4.00;99.90;;;;;;5037327;28;20041;-53
2023/04/15 00:22:12;;;;;;;14.10;6.05;;;4.00;99.90;;;;;;5039035;28;20036;-52
2023/04/15 00:24:38;;;;;;;10.48;6.18;;;3.90;99.90;;;;;;5037072;28;20043;-52
2023/04/15 00:27:04;;;;;;;15.40;5.88;;;3.90;99.90;;;;;;5038442;28;20056;-53
2023/04/15 00:29:30;;;;;;;13.93;6.35;;;4.10;99.90;;;;;;5038275;28;20037;-52
2023/04/15 00:31:56;;;;;;;13.95;7.72;;;3.90;99.90;;;;;;5038604;28;20542;-52
2023/04/15 00:34:22;;;;;;;16.13;6.55;;;3.70;99.90;;;;;;5035982;28;20045;-53
2023/04/15 00:36:48;;;;;;;11.18;6.63;;;3.80;99.90;;;;;;5036700;28;20029;-52
2023/04/15 00:39:15;;;;;;;9.23;6.30;;;4.10;99.90;;;;;;5030805;28;20037;-50
2023/04/15 00:41:41;;;;;;;14.70;6.25;;;3.80;99.90;;;;;;5034291;28;20215;-53
2023/04/15 00:44:08;;;;;;;15.68;7.28;;;3.80;99.90;;;;;;5041336;28;20140;-52
2023/04/15 00:46:38;;;;;;;8.90;6.50;;;3.80;99.90;;;;;;5035273;28;20383;-51
2023/04/15 00:49:05;;;;;;;15.85;7.10;;;3.80;99.90;;;;;;5028544;28;20073;-49
2023/04/15 00:51:32;;;;;;;10.55;6.60;;;3.40;99.90;;;;;;5039413;28;20032;-52
2023/04/15 00:53:59;;;;;;;15.15;7.20;;;3.70;99.90;;;;;;5032683;28;20057;-52
2023/04/15 00:56:26;;;;;;;14.90;7.80;;;3.60;99.90;;;;;;5039449;28;20055;-52
2023/04/15 00:58:52;;;;;;;12.02;6.70;;;3.70;99.90;;;;;;5033738;28;20103;-53
2023/04/15 01:01:21;;;;;;;13.05;7.22;;;3.80;99.90;;;;;;5046113;28;20048;-51
2023/04/15 01:03:49;;;;;;;14.48;7.72;;;3.70;99.90;;;;;;5035644;28;20080;-52
2023/04/15 01:06:15;;;;;;;15.65;8.63;;;3.60;99.90;;;;;;5037109;28;20129;-52
2023/04/15 01:08:41;;;;;;;16.30;7.28;;;3.50;99.90;;;;;;5030881;28;20539;-53
2023/04/15 01:11:08;;;;;;;16.80;8.38;;;3.60;99.90;;;;;;5035318;28;20052;-49
2023/04/15 01:13:35;;;;;;;14.88;7.82;;;3.90;99.90;;;;;;5038338;28;20860;-51
2023/04/15 01:16:01;;;;;;;15.85;7.80;;;3.40;99.90;;;;;;5032643;28;20453;-53
2023/04/15 01:18:29;;;;;;;18.05;8.30;;;3.30;99.90;;;;;;5038167;28;20033;-53
2023/04/15 01:20:55;;;;;;;18.30;8.25;;;3.10;99.90;;;;;;5028091;28;20123;-50
2023/04/15 01:23:22;;;;;;;16.52;8.30;;;3.30;99.90;;;;;;5027639;28;21213;-53
2023/04/15 01:25:49;;;;;;;14.68;7.53;;;3.20;99.90;;;;;;5033838;28;20052;-51
2023/04/15 01:28:15;;;;;;;18.15;9.45;;;3.20;99.90;;;;;;5039530;28;20029;-52
2023/04/15 01:30:40;;;;;;;19.02;10.00;;;4.20;99.90;;;;;;5032661;28;20045;-50
2023/04/15 01:33:06;;;;;;;17.73;8.70;;;3.20;99.90;;;;;;5033649;28;20151;-51
2023/04/15 01:35:32;;;;;;;13.88;8.85;;;3.20;99.90;;;;;;5043492;28;20040;-50
2023/04/15 01:38:06;;;;;;;14.82;8.85;;;3.10;99.90;;;;;;5029767;28;20152;-53
2023/04/15 01:40:33;;;;;;;16.20;9.05;;;3.20;99.90;;;;;;5033434;28;20404;-53
2023/04/15 01:43:00;;;;;;;17.58;10.50;;;3.00;99.90;;;;;;5035462;28;20407;-52
2023/04/15 01:45:26;;;;;;;19.25;10.02;;;3.10;99.90;;;;;;5027105;28;20875;-51
2023/04/15 01:47:52;;;;;;;15.60;8.98;;;3.20;99.90;;;;;;5033716;28;20116;-51
2023/04/15 01:50:19;;;;;;;18.15;9.52;;;3.10;99.90;;;;;;5033720;28;20100;-51
2023/04/15 01:52:45;;;;;;;20.05;9.10;;;2.90;99.90;;;;;;5033443;28;20057;-49
2023/04/15 01:55:12;;;;;;;21.67;9.82;;;3.00;99.90;;;;;;5040838;28;20049;-53
2023/04/15 01:57:38;;;;;;;14.82;8.93;;;3.20;99.90;;;;;;5031573;28;20119;-51
2023/04/15 02:00:04;;;;;;;18.52;10.38;;;3.00;99.90;;;;;;5018204;28;20053;-52
2023/04/15 02:02:32;;;;;;;17.35;9.30;;;2.90;99.90;;;;;;5035637;28;20040;-50
2023/04/15 02:04:58;;;;;;;16.52;9.68;;;3.10;99.90;;;;;;5031730;28;20126;-52
2023/04/15 02:07:24;;;;;;;19.48;10.52;;;2.90;99.90;;;;;;5035803;28;20046;-50
2023/04/15 02:09:49;;;;;;;18.48;10.07;;;2.70;99.90;;;;;;5031212;28;20427;-52
2023/04/15 02:12:15;;;;;;;19.48;10.18;;;3.00;99.90;;;;;;5032729;28;20105;-52
2023/04/15 02:14:41;;;;;;;20.17;9.93;;;;;;;;;;5031813;28;20099;-50
2023/04/15 02:17:07;;;;;;;19.75;10.35;;;2.90;99.90;;;;;;5035514;28;20084;-50
2023/04/15 02:19:36;;;;;;;17.00;10.57;;;3.00;99.90;;;;;;5032544;28;20077;-51
2023/04/15 02:22:02;;;;;;;15.90;9.77;;;;;;;;;;5033872;28;20041;-52
2023/04/15 02:24:30;;;;;;;20.27;11.15;;;2.80;99.90;;;;;;5034582;28;20052;-53
2023/04/15 02:26:56;;;;;;;18.27;11.05;;;3.00;99.90;;;;;;5036086;28;20494;-49
2023/04/15 02:29:22;;;;;;;21.75;11.13;;;3.10;99.90;;;;;;5035711;28;20083;-52
2023/04/15 02:31:48;;;;;;;20.48;12.15;;;3.20;99.90;;;;;;5017853;28;20060;-52
2023/04/15 02:34:14;;;;;;;20.60;11.02;;;3.20;99.90;;;;;;5028721;28;20049;-52
2023/04/15 02:36:40;;;;;;;22.08;11.20;;;3.10;99.90;;;;;;5030664;28;21019;-52
2023/04/15 02:39:06;;;;;;;22.70;11.57;;;3.20;99.90;;;;;;5038128;28;20510;-50
2023/04/15 02:41:32;;;;;;;20.15;11.65;;;;;;;;;;5033411;28;20046;-50
2023/04/15 02:43:57;;;;;;;18.27;11.38;;;3.10;99.90;;;;;;5030726;28;20205;-52
2023/04/15 02:46:23;;;;;;;24.05;12.20;;;3.10;99.90;;;;;;5032333;28;20451;-50
2023/04/15 02:48:49;;;;;;;21.77;11.80;;;;;;;;;;5034272;28;20040;-51
2023/04/15 02:51:20;;;;;;;20.45;11.90;;;3.00;99.90;;;;;;5029884;28;20045;-52
2023/04/15 02:53:47;;;;;;;22.13;12.35;;;2.80;99.90;;;;;;5031428;28;20045;-52
2023/04/15 02:56:14;;;;;;;19.73;12.00;;;3.10;99.90;;;;;;5040943;28;20040;-52
2023/04/15 02:58:41;;;;;;;23.13;12.50;;;;;;;;;;5037000;28;20479;-50
2023/04/15 03:01:07;;;;;;;24.67;13.05;;;2.80;99.90;;;;;;5029826;28;20030;-49
2023/04/15 03:03:33;;;;;;;24.48;12.85;;;3.60;99.90;;;;;;5039109;28;20446;-49
2023/04/15 03:05:59;;;;;;;22.98;12.48;;;0.40;99.90;;;;;;5027599;28;20041;-52
2023/04/15 03:08:25;;;;;;;26.13;13.60;;;2.70;99.90;;;;;;5029929;28;20080;-49
2023/04/15 03:10:51;;;;;;;27.15;13.18;;;2.70;99.90;;;;;;5035557;28;20120;-50
2023/04/15 03:13:18;;;;;;;25.88;13.57;;;2.70;99.90;;;;;;5036622;28;20831;-52
2023/04/15 03:15:46;;;;;;;25.50;13.32;;;2.60;99.90;;;;;;5036835;28;20033;-49
2023/04/15 03:18:12;;;;;;;26.92;13.35;;;2.60;99.90;;;;;;5034593;28;20037;-52
2023/04/15 03:20:38;;;;;;;21.95;12.73;;;;;;;;;;5035449;28;20450;-49
2023/04/15 03:23:04;;;;;;;28.02;12.45;;;2.50;99.90;;;;;;5029259;28;20072;-53
2023/04/15 03:25:30;;;;;;;26.20;13.35;;;;;;;;;;5034408;28;20053;-52
2023/04/15 03:27:56;;;;;;;27.85;13.52;;;;;;;;;;5036167;28;20124;-51
2023/04/15 03:30:22;;;;;;;26.75;13.15;;;2.30;99.90;;;;;;5032683;28;20651;-49
2023/04/15 03:32:48;;;;;;;22.30;14.27;;;;;;;;;;5026631;28;20084;-52
2023/04/15 03:35:14;;;;;;;24.33;13.07;;;;;;;;;;5033858;28;20132;-52
2023/04/15 03:37:40;;;;;;;31.33;15.35;;;2.20;99.90;;;;;;5037109;28;20060;-52
2023/04/15 03:40:06;;;;;;;27.95;13.32;;;;;;;;;;5033269;28;20037;-52
2023/04/15 03:42:32;;;;;;;26.27;13.48;;;2.00;99.90;;;;;;5034240;28;20049;-50
2023/04/15 03:44:58;;;;;;;29.15;14.38;;;2.40;99.90;;;;;;5041311;28;20102;-49
2023/04/15 03:47:23;;;;;;;28.13;13.68;;;2.30;99.90;;;;;;5030509;28;20060;-51
2023/04/15 03:49:49;;;;;;;36.58;16.13;;;2.30;99.90;;;;;;5035452;28;20041;-49
2023/04/15 03:52:15;;;;;;;32.15;16.20;;;2.10;99.90;;;;;;5006856;28;20489;-50
2023/04/15 03:54:40;;;;;;;34.72;16.17;;;2.10;99.90;;;;;;5036318;28;20068;-50
2023/04/15 03:57:06;;;;;;;39.40;16.05;;;2.10;99.90;;;;;;5033767;28;20800;-52
2023/04/15 03:59:32;;;;;;;39.92;17.60;;;2.10;99.90;;;;;;5028529;28;20479;-50
2023/04/15 04:01:57;;;;;;;37.47;17.50;;;2.10;99.90;;;;;;5027697;28;20095;-50
2023/04/15 04:04:23;;;;;;;42.15;18.83;;;2.10;99.90;;;;;;5036420;28;20038;-51
2023/04/15 04:06:49;;;;;;;37.72;17.10;;;2.00;99.90;;;;;;5016457;28;20047;-53
2023/04/15 04:09:15;;;;;;;41.28;18.02;;;2.00;99.90;;;;;;5034610;28;20048;-51
2023/04/15 04:11:40;;;;;;;34.03;15.00;;;2.00;99.90;;;;;;5036281;28;20410;-49
2023/04/15 04:14:06;;;;;;;32.55;15.60;;;;;;;;;;5034250;28;20060;-49
2023/04/15 04:16:32;;;;;;;35.63;16.02;;;1.90;99.90;;;;;;5025772;28;20758;-50
2023/04/15 04:18:58;;;;;;;40.80;17.67;;;;;;;;;;5031515;28;20120;-49
2023/04/15 04:21:25;;;;;;;41.33;16.88;;;1.80;99.90;;;;;;5025761;28;20034;-50
2023/04/15 04:23:51;;;;;;;29.83;14.60;;;1.80;99.90;;;;;;5034797;28;20045;-50
2023/04/15 04:26:16;;;;;;;39.03;16.08;;;3.80;99.90;;;;;;5034259;28;20040;-50
2023/04/15 04:28:42;;;;;;;37.65;16.48;;;1.90;99.90;;;;;;5016911;28;20365;-49
2023/04/15 04:31:08;;;;;;;45.22;16.90;;;1.70;99.90;;;;;;5038600;28;20215;-49
2023/04/15 04:33:34;;;;;;;36.83;17.60;;;2.30;99.90;;;;;;5037618;28;20195;-50
2023/04/15 04:35:59;;;;;;;35.75;15.85;;;1.90;99.90;;;;;;5038888;28;20038;-51
2023/04/15 04:38:25;;;;;;;43.40;18.00;;;1.60;99.90;;;;;;5034595;28;20544;-50
2023/04/15 04:40:51;;;;;;;41.47;16.30;;;1.80;99.90;;;;;;5031617;28;20067;-51
2023/04/15 04:43:16;;;;;;;39.38;17.70;;;1.60;99.90;;;;;;5035167;28;20057;-51
2023/04/15 04:45:42;;;;;;;38.92;16.55;;;1.50;99.90;;;;;;5013237;28;20080;-49
2023/04/15 04:48:09;;;;;;;36.60;16.08;;;1.60;99.90;;;;;;5033765;28;20037;-50
2023/04/15 04:50:35;;;;;;;35.25;17.17;;;1.50;99.90;;;;;;5031451;28;20049;-52
2023/04/15 04:53:01;;;;;;;43.30;17.70;;;1.60;99.90;;;;;;5034365;28;20057;-49
2023/04/15 04:55:27;;;;;;;36.38;17.08;;;1.40;99.90;;;;;;5042939;28;20094;-51
2023/04/15 04:57:53;;;;;;;36.58;17.38;;;1.60;99.90;;;;;;5033298;28;20049;-50
2023/04/15 05:00:19;;;;;;;35.05;16.20;;;1.60;99.90;;;;;;5031685;28;20045;-49
2023/04/15 05:02:45;;;;;;;43.45;17.90;;;1.70;99.90;;;;;;5046201;28;20560;-51
2023/04/15 05:05:11;;;;;;;39.90;17.65;;;1.70;99.90;;;;;;5041210;28;20102;-51
2023/04/15 05:07:38;;;;;;;37.75;17.13;;;1.70;99.90;;;;;;5039925;28;20037;-49
2023/04/15 05:10:04;;;;;;;41.15;16.88;;;1.80;99.90;;;;;;5032518;28;20084;-52
2023/04/15 05:12:31;;;;;;;38.28;17.48;;;1.90;99.90;;;;;;5038447;28;20055;-49
2023/04/15 05:14:56;;;;;;;34.55;16.35;;;1.80;99.90;;;;;;5032545;28;20085;-53
2023/04/15 05:17:22;;;;;;;36.03;15.90;;;2.10;99.90;;;;;;5035431;28;20510;-49
2023/04/15 05:19:48;;;;;;;37.38;16.77;;;2.10;99.90;;;;;;5034710;28;20037;-49
2023/04/15 05:22:13;;;;;;;40.92;19.33;;;2.00;99.90;;;;;;5033942;28;20474;-49
2023/04/15 05:24:39;;;;;;;41.97;19.50;;;4.30;99.90;;;;;;5033587;28;20065;-51
2023/04/15 05:27:05;;;;;;;40.97;19.70;;;2.30;99.90;;;;;;5031434;28;20587;-50
2023/04/15 05:29:30;;;;;;;49.00;22.27;;;2.40;99.90;;;;;;5044194;28;20045;-49
2023/04/15 05:31:56;;;;;;;48.88;21.92;;;2.70;99.90;;;;;;5027921;28;20437;-52
2023/04/15 05:34:22;;;;;;;46.05;23.17;;;;;;;;;;5037863;28;20056;-49
2023/04/15 05:36:48;;;;;;;48.60;23.42;;;3.20;99.90;;;;;;5030816;28;20033;-49
2023/04/15 05:39:14;;;;;;;43.50;21.83;;;3.80;99.90;;;;;;5028865;28;20091;-52
2023/04/15 05:41:40;;;;;;;46.53;23.05;;;3.70;99.90;;;;;;5042918;28;20467;-50
2023/04/15 05:44:06;;;;;;;47.95;23.33;;;;;;;;;;5034706;28;20127;-49
2023/04/15 05:46:31;;;;;;;40.90;22.00;;;3.80;99.90;;;;;;5034704;28;20109;-49
2023/04/15 05:48:57;;;;;;;43.83;22.75;;;3.90;99.90;;;;;;5034058;28;20045;-51
2023/04/15 05:51:23;;;;;;;46.80;22.08;;;4.30;99.90;;;;;;5040116;28;20053;-50
2023/04/15 05:53:48;;;;;;;35.95;20.65;;;4.10;99.90;;;;;;5035461;28;20787;-51
2023/04/15 05:56:14;;;;;;;40.67;22.52;;;4.30;99.90;;;;;;5039165;28;20127;-51
2023/04/15 05:58:40;;;;;;;42.53;23.05;;;4.50;99.90;;;;;;5036555;28;20041;-52
2023/04/15 06:01:06;;;;;;;43.40;22.77;;;4.60;99.90;;;;;;5032754;28;20064;-49
2023/04/15 06:03:32;;;;;;;44.58;23.15;;;5.00;99.90;;;;;;5039897;28;20046;-51
2023/04/15 06:05:58;;;;;;;46.17;22.55;;;5.90;99.90;;;;;;5028855;28;20041;-52
2023/04/15 06:08:23;;;;;;;41.80;21.50;;;4.90;99.90;;;;;;5037742;28;20045;-52
2023/04/15 06:10:49;;;;;;;37.88;20.67;;;4.90;99.90;;;;;;5034984;28;21144;-51
2023/04/15 06:13:15;;;;;;;37.30;21.17;;;6.00;99.90;;;;;;5032232;28;20080;-52
2023/04/15 06:15:41;;;;;;;38.28;19.55;;;5.20;99.90;;;;;;5038766;28;20033;-53
2023/04/15 06:18:07;;;;;;;40.25;21.73;;;5.30;99.90;;;;;;5030977;28;20121;-49
2023/04/15 06:20:33;;;;;;;38.85;22.00;;;5.50;99.90;;;;;;5035730;28;20680;-52
2023/04/15 06:22:59;;;;;;;34.80;19.92;;;5.60;99.90;;;;;;5032193;28;20072;-52
2023/04/15 06:25:25;;;;;;;36.00;21.48;;;7.10;99.90;;;;;;5041582;28;20142;-53
2023/04/15 06:27:50;;;;;;;35.88;20.42;;;6.00;99.90;;;;;;5029565;28;20041;-52
2023/04/15 06:30:16;;;;;;;34.90;20.70;;;6.40;99.90;;;;;;5034829;28;20041;-52
2023/04/15 06:32:41;;;;;;;34.40;18.95;;;6.20;99.90;;;;;;5033361;28;20041;-52
2023/04/15 06:35:08;;;;;;;32.25;18.65;;;6.50;99.90;;;;;;5026991;28;20426;-52
2023/04/15 06:37:33;;;;;;;27.80;18.55;;;6.30;99.90;;;;;;5030803;28;20209;-52
2023/04/15 06:39:59;;;;;;;31.55;19.02;;;7.20;99.90;;;;;;5036054;28;20572;-51
2023/04/15 06:42:25;;;;;;;28.27;17.73;;;7.60;99.90;;;;;;5036995;28;20597;-51
2023/04/15 06:44:51;;;;;;;29.50;17.75;;;7.40;99.90;;;;;;5032717;28;20041;-51
2023/04/15 06:47:16;;;;;;;26.67;18.15;;;7.20;99.90;;;;;;5022218;28;20039;-52
2023/04/15 06:49:42;;;;;;;26.15;16.50;;;7.10;99.90;;;;;;5032923;28;20069;-52
2023/04/15 06:52:10;;;;;;;27.63;17.17;;;8.00;99.90;;;;;;5025464;28;20072;-53
2023/04/15 06:54:36;;;;;;;23.17;15.57;;;;;;;;;;5033657;28;20132;-52
2023/04/15 06:57:02;;;;;;;22.17;15.15;;;;;;;;;;5031782;28;20080;-52
2023/04/15 06:59:28;;;;;;;20.60;12.95;;;;;;;;;;5029437;28;20040;-52
2023/04/15 07:01:54;;;;;;;24.33;12.88;;;;;;;;;;5031352;28;20115;-51
2023/04/15 07:04:21;;;;;;;18.63;12.32;;;;;;;;;;5028507;28;20124;-53
2023/04/15 07:06:47;;;;;;;16.50;10.93;;;;;;;;;;5036517;28;20084;-53
2023/04/15 07:09:13;;;;;;;16.00;10.02;;;;;;;;;;5033037;28;20037;-52
2023/04/15 07:11:39;;;;;;;16.42;9.32;;;;;;;;;;5033576;28;20064;-49
2023/04/15 07:14:05;;;;;;;15.80;11.40;;;8.20;99.90;;;;;;5034597;28;20087;-53
2023/04/15 07:16:31;;;;;;;15.75;9.30;;;8.30;99.90;;;;;;5029463;28;20037;-53
2023/04/15 07:18:57;;;;;;;16.65;11.23;;;8.80;99.90;;;;;;5030965;28;20815;-49
2023/04/15 07:21:24;;;;;;;13.38;9.70;;;9.00;99.90;;;;;;5028109;28;20034;-52
2023/04/15 07:23:50;;;;;;;13.30;9.32;;;8.60;99.90;;;;;;5033021;28;20487;-52
2023/04/15 07:26:16;;;;;;;18.08;10.73;;;9.00;99.90;;;;;;5030832;28;20048;-53
2023/04/15 07:28:42;;;;;;;17.00;11.20;;;9.30;99.90;;;;;;5030861;28;20657;-52
2023/04/15 07:31:08;;;;;;;16.13;9.77;;;8.80;99.90;;;;;;5032399;28;20056;-52
2023/04/15 07:33:33;;;;;;;14.73;10.13;;;9.10;99.90;;;;;;5034696;28;20077;-53
2023/04/15 07:35:59;;;;;;;15.65;10.38;;;9.30;99.90;;;;;;5038348;28;20780;-52
2023/04/15 07:38:25;;;;;;;14.20;9.70;;;9.40;99.90;;;;;;5031860;28;20041;-52
2023/04/15 07:40:51;;;;;;;12.18;9.52;;;9.80;99.90;;;;;;5036064;28;20537;-52
2023/04/15 07:43:17;;;;;;;17.02;12.00;;;9.90;99.90;;;;;;5031049;28;20387;-52
2023/04/15 07:45:43;;;;;;;14.90;10.23;;;9.70;99.90;;;;;;5032533;28;20049;-53
2023/04/15 07:48:09;;;;;;;16.40;10.10;;;9.80;99.90;;;;;;5031864;28;20091;-53
2023/04/15 07:50:34;;;;;;;12.68;9.57;;;9.80;99.90;;;;;;5028244;28;20083;-53
2023/04/15 07:53:00;;;;;;;13.20;9.85;;;9.90;99.90;;;;;;5028759;28;20977;-52
2023/04/15 07:55:26;;;;;;;10.55;7.55;;;10.00;99.90;;;;;;5036444;28;20055;-53
2023/04/15 07:57:51;;;;;;;8.63;6.40;;;10.10;99.90;;;;;;5039582;28;20045;-53
2023/04/15 08:00:17;;;;;;;9.38;5.55;;;10.10;99.90;;;;;;5032681;28;20562;-52
2023/04/15 08:02:43;;;;;;;7.40;4.13;;;10.30;99.90;;;;;;5030060;28;20380;-52
2023/04/15 08:05:13;;;;;;;7.93;4.60;;;10.40;99.90;;;;;;5040013;28;20594;-52
2023/04/15 08:07:39;;;;;;;7.70;4.50;;;11.00;99.90;;;;;;5030683;28;20045;-52
2023/04/15 08:10:05;;;;;;;7.65;4.43;;;10.50;99.90;;;;;;5029103;28;20033;-53
2023/04/15 08:12:31;;;;;;;10.25;4.07;;;10.50;99.90;;;;;;5042119;28;20517;-49
2023/04/15 08:14:57;;;;;;;7.65;4.43;;;10.80;99.90;;;;;;5039075;28;20156;-52
2023/04/15 08:17:23;;;;;;;7.22;4.10;;;9.90;99.90;;;;;;5041143;28;20098;-52
2023/04/15 08:19:49;;;;;;;9.73;4.72;;;11.20;99.90;;;;;;5036932;28;20411;-52
2023/04/15 08:22:15;;;;;;;8.07;4.32;;;10.20;99.90;;;;;;5039368;28;20033;-52
2023/04/15 08:24:41;;;;;;;8.35;4.25;;;10.50;99.90;;;;;;5033305;28;20103;-53
2023/04/15 08:27:07;;;;;;;7.63;4.18;;;10.60;99.90;;;;;;5035418;28;20033;-53
2023/04/15 08:29:34;;;;;;;9.40;3.58;;;10.30;99.90;;;;;;5034413;28;20131;-52
2023/04/15 08:32:03;;;;;;;7.72;3.85;;;9.70;99.90;;;;;;5033352;28;20041;-51
2023/04/15 08:34:29;;;;;;;6.57;3.47;;;10.20;99.90;;;;;;5033908;28;20049;-51
2023/04/15 08:36:55;;;;;;;5.05;2.38;;;10.30;99.90;;;;;;5036258;28;20037;-50
2023/04/15 08:39:21;;;;;;;5.22;3.00;;;10.00;99.90;;;;;;5038889;28;20041;-53
2023/04/15 08:41:56;;;;;;;6.05;2.67;;;10.00;99.90;;;;;;5037040;28;20049;-53
2023/04/15 08:44:24;;;;;;;3.95;2.55;;;9.70;99.90;;;;;;5015077;28;20045;-52
2023/04/15 08:46:52;;;;;;;6.55;2.47;;;10.50;99.90;;;;;;5032114;28;20128;-52
2023/04/15 08:49:20;;;;;;;5.63;2.38;;;10.20;99.90;;;;;;5038664;28;20056;-53
2023/04/15 08:51:46;;;;;;;5.13;2.22;;;10.60;99.90;;;;;;5035630;28;20055;-51
2023/04/15 08:54:12;;;;;;;3.78;2.00;;;9.90;99.90;;;;;;5032554;28;20582;-50
2023/04/15 08:56:38;;;;;;;6.90;2.08;;;9.90;99.90;;;;;;5035919;28;20029;-52
2023/04/15 08:59:04;;;;;;;5.45;2.10;;;10.00;99.90;;;;;;5040189;28;20534;-51
2023/04/15 09:01:31;;;;;;;6.15;2.38;;;10.50;99.90;;;;;;5031636;28;20045;-51
2023/04/15 09:03:58;;;;;;;5.03;1.85;;;10.20;99.90;;;;;;5039195;28;20039;-51
2023/04/15 09:06:24;;;;;;;3.20;2.13;;;10.20;99.90;;;;;;5031670;28;20077;-52
2023/04/15 09:08:50;;;;;;;6.13;2.17;;;10.80;99.90;;;;;;5033303;28;20041;-51
2023/04/15 09:11:17;;;;;;;4.75;1.80;;;11.10;99.90;;;;;;5044494;28;20037;-51
2023/04/15 09:13:43;;;;;;;4.15;1.75;;;10.80;99.90;;;;;;5028362;28;20047;-49
2023/04/15 09:16:09;;;;;;;4.13;1.60;;;10.90;99.90;;;;;;5032099;28;20040;-52
2023/04/15 09:18:36;;;;;;;5.32;1.50;;;10.50;99.90;;;;;;5045560;28;20394;-49
2023/04/15 09:21:07;;;;;;;3.58;1.63;;;10.90;99.90;;;;;;5041811;28;20044;-49
2023/04/15 09:23:34;;;;;;;2.95;1.77;;;10.50;99.90;;;;;;5042258;28;20033;-49
2023/04/15 09:26:04;;;;;;;3.65;1.30;;;10.90;99.90;;;;;;5043653;28;20032;-50
2023/04/15 09:28:30;;;;;;;4.35;1.50;;;10.60;99.90;;;;;;5036807;28;20052;-52
2023/04/15 09:30:57;;;;;;;4.88;1.40;;;10.90;99.90;;;;;;5038353;28;20102;-51
2023/04/15 09:33:25;;;;;;;2.35;1.05;;;10.90;99.90;;;;;;5034739;28;20044;-50
2023/04/15 09:35:58;;;;;;;3.72;1.35;;;11.10;99.90;;;;;;5031928;28;20030;-51
2023/04/15 09:38:24;;;;;;;3.55;1.10;;;11.10;99.90;;;;;;5027546;28;20051;-50
2023/04/15 09:40:50;;;;;;;4.03;0.98;;;11.10;99.90;;;;;;5032790;28;20506;-51
2023/04/15 09:43:16;;;;;;;2.97;0.85;;;11.20;99.90;;;;;;5029492;28;20045;-52
2023/04/15 09:45:53;;;;;;;3.95;0.98;;;11.10;99.90;;;;;;5038960;28;20069;-51
2023/04/15 09:48:26;;;;;;;3.42;1.27;;;11.20;99.90;;;;;;5036323;28;20653;-49
2023/04/15 09:50:52;;;;;;;2.42;0.88;;;11.20;99.90;;;;;;5041368;28;20045;-51
2023/04/15 09:53:20;;;;;;;1.40;0.70;;;11.30;99.90;;;;;;5038763;28;20168;-50
2023/04/15 09:55:51;;;;;;;3.47;1.00;;;11.30;99.90;;;;;;5038204;28;20037;-51
2023/04/15 09:58:28;;;;;;;3.38;0.80;;;11.30;99.90;;;;;;5037358;28;20033;-52
2023/04/15 10:00:55;;;;;;;4.30;0.85;;;11.20;99.90;;;;;;5031793;28;20052;-51
2023/04/15 10:03:23;;;;;;;3.10;1.48;;;11.20;99.90;;;;;;5031921;28;20041;-51
2023/04/15 10:05:51;;;;;;;4.82;1.65;;;11.10;99.90;;;;;;5027606;28;20041;-52
2023/04/15 10:08:18;;;;;;;4.35;1.08;;;10.90;99.90;;;;;;5034225;28;20770;-50
2023/04/15 10:10:46;;;;;;;6.13;1.15;;;11.30;99.90;;;;;;5037381;28;20738;-52
2023/04/15 10:13:15;;;;;;;3.80;1.10;;;11.50;99.90;;;;;;5042350;28;20084;-50
2023/04/15 10:15:44;;;;;;;4.10;1.23;;;11.10;99.90;;;;;;5039751;28;20716;-51
2023/04/15 10:18:19;;;;;;;3.72;1.10;;;11.10;99.90;;;;;;5033779;28;20141;-51
2023/04/15 10:25:43;;;;;;;3.63;0.85;;;10.90;99.90;;;;;;5019256;28;20039;-49
2023/04/15 10:31:43;;;;;;;3.53;0.97;;;10.90;99.90;;;;;;5021897;28;20064;-51
2023/04/15 10:37:36;;;;;;;3.80;0.90;;;10.80;99.90;;;;;;5037972;28;19924;-49
2023/04/15 10:40:31;;;;;;;4.18;1.35;;;10.70;99.90;;;;;;5033191;28;20059;-50
2023/04/15 10:43:00;;;;;;;2.15;0.80;;;10.80;99.90;;;;;;5037546;28;20561;-48
2023/04/15 10:45:35;;;;;;;5.55;0.85;;;10.80;99.90;;;;;;5036000;28;20445;-50
2023/04/15 10:48:03;;;;;;;4.57;0.80;;;10.90;99.90;;;;;;5031737;28;20036;-48
2023/04/15 10:50:31;;;;;;;4.93;0.60;;;11.00;99.90;;;;;;5029318;28;20053;-51
2023/04/15 10:52:57;;;;;;;2.47;0.60;;;11.10;99.90;;;;;;4998360;28;20057;-49
2023/04/15 10:55:25;;;;;;;2.15;0.73;;;11.20;99.90;;;;;;5009765;28;20061;-49
2023/04/15 10:57:53;;;;;;;4.13;0.60;;;11.30;99.90;;;;;;5008920;28;20046;-49
2023/04/15 11:00:20;;;;;;;3.42;0.88;;;11.40;99.90;;;;;;5012390;28;20130;-50
2023/04/15 11:02:56;;;;;;;2.47;0.70;;;11.50;99.90;;;;;;5001209;28;20119;-49
2023/04/15 11:05:48;;;;;;;4.47;0.80;;;11.60;99.90;;;;;;5017997;28;20038;-51
2023/04/15 11:08:14;;;;;;;2.70;0.75;;;11.70;99.90;;;;;;5016386;28;20562;-52
2023/04/15 11:10:40;;;;;;;3.20;0.50;;;11.70;99.90;;;;;;5023628;28;20045;-50
2023/04/15 11:13:08;;;;;;;2.45;0.65;;;11.90;99.90;;;;;;5010075;28;20064;-49
2023/04/15 11:15:42;;;;;;;1.83;0.40;;;12.10;99.90;;;;;;5015646;28;20080;-50
2023/04/15 11:18:22;;;;;;;4.47;0.60;;;12.20;99.80;;;;;;5014979;28;20120;-48
2023/04/15 11:20:50;;;;;;;2.13;0.43;;;12.20;99.90;;;;;;5012529;28;20079;-49
2023/04/15 11:23:26;;;;;;;6.57;1.38;;;12.10;99.90;;;;;;5015012;28;20148;-49
2023/04/15 11:25:54;;;;;;;3.78;0.90;;;12.30;99.90;;;;;;5007004;28;20057;-49
2023/04/15 11:28:20;;;;;;;6.22;0.90;;;11.90;99.90;;;;;;5011913;28;20045;-50
2023/04/15 11:30:45;;;;;;;2.95;0.65;;;11.80;99.90;;;;;;5012162;28;20770;-52
2023/04/15 11:33:12;;;;;;;3.58;1.58;;;11.90;99.90;;;;;;5014558;28;20049;-49
2023/04/15 11:35:40;;;;;;;5.55;0.88;;;12.10;99.90;;;;;;5015732;28;20050;-53
2023/04/15 11:38:14;;;;;;;3.92;0.70;;;12.10;99.90;;;;;;5003854;28;20057;-49
2023/04/15 11:40:41;;;;;;;4.30;0.40;;;12.40;99.90;;;;;;5021867;28;20053;-49
2023/04/15 11:43:10;;;;;;;2.38;0.70;;;12.60;99.90;;;;;;5013357;28;20053;-49
2023/04/15 11:45:47;;;;;;;2.42;0.60;;;13.10;99.90;;;;;;5013867;28;20835;-49
2023/04/15 11:48:13;;;;;;;3.90;1.00;;;12.70;99.90;;;;;;5018058;28;20484;-48
2023/04/15 11:50:40;;;;;;;3.00;0.80;;;12.20;99.90;;;;;;5016795;28;20104;-49
2023/04/15 11:53:08;;;;;;;7.00;0.88;;;12.10;99.90;;;;;;5023781;28;20053;-48
2023/04/15 11:55:48;;;;;;;3.95;1.17;;;11.60;99.90;;;;;;5032452;28;20042;-52
2023/04/15 11:58:16;;;;;;;6.07;1.33;;;11.90;99.90;;;;;;5047059;28;20037;-49
2023/04/15 12:00:46;;;;;;;4.50;1.00;;;11.50;99.90;;;;;;5040586;28;20048;-51
2023/04/15 12:03:24;;;;;;;7.05;0.85;;;11.60;99.90;;;;;;5041068;28;20048;-50
2023/04/15 12:06:20;;;;;;;5.50;1.10;;;11.40;99.90;;;;;;5034263;28;20048;-50
2023/04/15 12:08:55;;;;;;;4.60;0.50;;;11.50;99.90;;;;;;5031534;28;20838;-49
2023/04/15 12:11:31;;;;;;;4.05;0.70;;;11.30;99.90;;;;;;5045082;28;20059;-52
2023/04/15 12:14:15;;;;;;;5.65;1.00;;;11.30;99.90;;;;;;5031844;28;20084;-49
2023/04/15 12:16:43;;;;;;;3.42;1.00;;;11.30;99.90;;;;;;5029680;28;20048;-49
2023/04/15 12:19:13;;;;;;;2.92;0.70;;;11.30;99.90;;;;;;5035591;28;20048;-50
2023/04/15 12:21:43;;;;;;;5.35;1.42;;;11.30;99.90;;;;;;5041141;28;20049;-51
2023/04/15 12:24:11;;;;;;;5.55;0.82;;;10.70;99.90;;;;;;5040070;28;20053;-49
2023/04/15 12:26:47;;;;;;;4.82;0.90;;;11.20;99.90;;;;;;5033323;28;20148;-49
2023/04/15 12:29:15;;;;;;;6.05;1.20;;;11.20;99.90;;;;;;5016029;28;20084;-49
2023/04/15 12:31:48;;;;;;;3.38;0.77;;;11.20;99.90;;;;;;5038812;28;20681;-49
2023/04/15 12:34:14;;;;;;;3.33;0.60;;;12.00;99.90;;;;;;5038322;28;20138;-51
2023/04/15 12:36:40;;;;;;;4.65;0.68;;;11.80;99.90;;;;;;5032860;28;20045;-50
2023/04/15 12:39:06;;;;;;;6.60;1.17;;;11.10;99.90;;;;;;5032645;28;20087;-48
2023/04/15 12:41:32;;;;;;;5.45;0.80;;;11.60;99.90;;;;;;5034759;28;20056;-49
2023/04/15 12:43:58;;;;;;;6.60;0.90;;;10.80;99.90;;;;;;5034095;28;20037;-51
2023/04/15 12:46:24;;;;;;;4.80;0.60;;;10.80;99.90;;;;;;5037123;28;20064;-48
2023/04/15 12:48:53;;;;;;;4.43;1.02;;;10.70;99.90;;;;;;5033563;28;20173;-50
2023/04/15 12:51:22;;;;;;;3.90;0.68;;;10.70;99.90;;;;;;5038280;28;20073;-49
2023/04/15 12:53:48;;;;;;;6.70;1.00;;;11.20;99.90;;;;;;5038200;28;20148;-50
2023/04/15 12:56:15;;;;;;;6.63;0.90;;;10.50;99.90;;;;;;5031033;28;20092;-51
2023/04/15 12:58:42;;;;;;;4.68;0.77;;;10.50;99.90;;;;;;5031206;28;20046;-51
2023/04/15 13:01:07;;;;;;;7.10;0.93;;;10.60;99.90;;;;;;5037644;28;20951;-48